Time;durP1;ratioP1;P1;durP2;ratioP2;P2;SDS_P1;SDS_P2;PMS_P1;PMS_P2;Temp;Humidity;BMP_temperature;BMP_pressure;BME280_temperature;BME280_humidity;BME280_pressure;Samples;Min_cycle;Max_cycle;Signal;HPM_P1;HPM_P2
2024/02/09 00:00:12;;;;;;;0.30;0.20;;;9.90;99.90;;;;;;5103646;28;20172;-79
2024/02/09 00:02:41;;;;;;;0.30;0.20;;;9.90;99.90;;;;;;5105135;28;20716;-78
2024/02/09 00:05:11;;;;;;;0.98;0.98;;;9.90;99.90;;;;;;5105884;28;20702;-78
2024/02/09 00:07:37;;;;;;;1.42;1.42;;;10.00;99.90;;;;;;5105114;28;20208;-78
2024/02/09 00:10:06;;;;;;;0.82;0.80;;;10.00;99.90;;;;;;5107690;28;20172;-77
2024/02/09 00:12:34;;;;;;;0.30;0.20;;;9.90;99.90;;;;;;5108945;28;20172;-77
2024/02/09 00:15:06;;;;;;;0.35;0.28;;;9.90;99.90;;;;;;5109223;28;20164;-78
2024/02/09 00:17:32;;;;;;;0.30;0.20;;;9.90;99.90;;;;;;5109069;28;20171;-77
2024/02/09 00:19:59;;;;;;;0.38;0.25;;;9.90;99.90;;;;;;5109365;28;20710;-77
2024/02/09 00:22:25;;;;;;;0.30;0.20;;;9.90;99.90;;;;;;5108554;28;20175;-78
2024/02/09 00:24:51;;;;;;;0.30;0.20;;;9.90;99.90;;;;;;5107795;28;20172;-77
2024/02/09 00:27:18;;;;;;;0.30;0.20;;;9.90;99.90;;;;;;5108642;28;20440;-78
2024/02/09 00:29:43;;;;;;;0.30;0.20;;;9.90;99.90;;;;;;5107513;28;20239;-78
2024/02/09 00:32:09;;;;;;;36.97;34.43;;;10.00;99.90;;;;;;5107391;28;20226;-77
2024/02/09 00:34:35;;;;;;;0.30;0.20;;;10.00;99.90;;;;;;5108667;28;20468;-78
2024/02/09 00:37:01;;;;;;;0.30;0.20;;;10.10;99.90;;;;;;5108894;28;20195;-78
2024/02/09 00:39:33;;;;;;;0.68;0.68;;;10.10;99.90;;;;;;5108641;28;20204;-78
2024/02/09 00:42:04;;;;;;;0.30;0.22;;;10.10;99.90;;;;;;5108561;28;20164;-77
2024/02/09 00:44:31;;;;;;;4.00;3.80;;;10.10;99.90;;;;;;5108919;28;20195;-78
2024/02/09 00:47:01;;;;;;;0.30;0.20;;;10.20;99.90;;;;;;5107079;28;20677;-78
2024/02/09 00:49:29;;;;;;;0.30;0.30;;;10.20;99.90;;;;;;5108563;28;20251;-77
2024/02/09 00:52:00;;;;;;;0.30;0.30;;;10.30;99.90;;;;;;5108454;28;20183;-77
2024/02/09 00:54:26;;;;;;;0.88;0.88;;;10.30;99.90;;;;;;5106979;28;20246;-77
2024/02/09 00:56:52;;;;;;;1.02;0.98;;;10.20;99.90;;;;;;5107491;28;20656;-78
2024/02/09 00:59:18;;;;;;;0.60;0.20;;;10.20;99.90;;;;;;5108337;28;20212;-78
2024/02/09 01:01:48;;;;;;;0.30;0.20;;;10.20;99.90;;;;;;5108019;28;20247;-78
2024/02/09 01:04:16;;;;;;;0.30;0.20;;;10.10;99.90;;;;;;5108493;28;20208;-77
2024/02/09 01:06:42;;;;;;;0.30;0.20;;;10.10;99.90;;;;;;5107892;28;20164;-77
2024/02/09 01:09:10;;;;;;;1.27;1.27;;;10.10;99.90;;;;;;5107823;28;20482;-78
2024/02/09 01:11:38;;;;;;;0.30;0.30;;;10.10;99.90;;;;;;5106489;28;20463;-77
2024/02/09 02:47:00;;;;;;;0.57;0.57;;;10.00;99.90;;;;;;5106402;28;20375;-77
2024/02/09 03:05:51;;;;;;;0.30;0.30;;;10.20;99.90;;;;;;5106245;28;20323;-77
2024/02/09 03:08:16;;;;;;;0.30;0.20;;;10.20;99.90;;;;;;5105628;28;20302;-77
2024/02/09 03:10:42;;;;;;;0.30;0.20;;;10.20;99.90;;;;;;5104322;28;20223;-77
2024/02/09 03:13:08;;;;;;;0.30;0.20;;;10.20;99.90;;;;;;5104475;28;20215;-78
2024/02/09 03:15:34;;;;;;;0.87;0.87;;;10.20;99.90;;;;;;5105916;28;20203;-77
2024/02/09 03:18:04;;;;;;;0.30;0.20;;;10.30;99.90;;;;;;5104353;28;20553;-77
2024/02/09 03:20:31;;;;;;;0.30;0.20;;;10.30;99.90;;;;;;5106078;28;20171;-77
2024/02/09 03:23:01;;;;;;;0.30;0.20;;;10.30;99.90;;;;;;5105854;28;20199;-77
2024/02/09 03:25:28;;;;;;;0.30;0.20;;;10.20;99.90;;;;;;5104462;28;20600;-77
2024/02/09 03:27:54;;;;;;;0.57;0.55;;;10.20;99.90;;;;;;5105520;28;20195;-77
2024/02/09 03:30:19;;;;;;;0.30;0.20;;;10.20;99.90;;;;;;5105622;28;20172;-76
2024/02/09 03:32:45;;;;;;;0.30;0.20;;;10.20;99.90;;;;;;5104109;28;20207;-77
2024/02/09 03:35:12;;;;;;;0.30;0.20;;;10.20;99.90;;;;;;5106157;28;20634;-77
2024/02/09 03:37:42;;;;;;;0.30;0.20;;;10.20;99.90;;;;;;5105278;28;20563;-77
2024/02/09 03:40:08;;;;;;;0.30;0.20;;;10.30;99.90;;;;;;5104879;28;20233;-77
2024/02/09 03:42:34;;;;;;;0.30;0.30;;;10.30;99.90;;;;;;5105805;28;20221;-76
2024/02/09 03:44:59;;;;;;;0.30;0.20;;;10.30;99.90;;;;;;5108664;28;20264;-77
2024/02/09 03:47:26;;;;;;;0.30;0.20;;;10.30;99.90;;;;;;5109690;28;20176;-77
2024/02/09 03:49:56;;;;;;;0.30;0.20;;;10.30;99.90;;;;;;5108107;28;20207;-77
2024/02/09 03:52:23;;;;;;;0.57;0.57;;;10.30;99.90;;;;;;5108001;28;20657;-78
2024/02/09 03:54:52;;;;;;;0.70;0.70;;;10.30;99.90;;;;;;5110125;28;20556;-77
2024/02/09 03:57:18;;;;;;;0.40;0.30;;;10.30;99.90;;;;;;5109395;28;20241;-77
2024/02/09 03:59:44;;;;;;;0.30;0.20;;;10.30;99.90;;;;;;5109518;28;20180;-78
2024/02/09 04:02:10;;;;;;;0.30;0.20;;;10.40;99.90;;;;;;5108314;28;20288;-77
2024/02/09 04:04:36;;;;;;;0.30;0.20;;;10.40;99.90;;;;;;5107710;28;20418;-77
2024/02/09 04:07:05;;;;;;;0.30;0.20;;;10.50;99.90;;;;;;5107813;28;20407;-77
2024/02/09 04:09:32;;;;;;;0.30;0.20;;;10.50;99.90;;;;;;5107674;28;20215;-77
2024/02/09 04:11:58;;;;;;;0.30;0.20;;;10.60;99.90;;;;;;5109135;28;20302;-77
2024/02/09 04:14:24;;;;;;;0.30;0.20;;;10.60;99.90;;;;;;5109675;28;20280;-77
2024/02/09 04:16:49;;;;;;;0.30;0.20;;;10.60;99.90;;;;;;5109000;28;20589;-77
2024/02/09 04:19:17;;;;;;;0.30;0.20;;;10.60;99.90;;;;;;5109028;28;20215;-77
2024/02/09 04:21:47;;;;;;;0.30;0.20;;;10.60;99.90;;;;;;5108967;28;20180;-77
2024/02/09 04:24:23;;;;;;;0.30;0.20;;;10.60;99.90;;;;;;5108045;28;20207;-76
2024/02/09 04:26:51;;;;;;;0.30;0.20;;;10.60;99.90;;;;;;5107442;28;20183;-77
2024/02/09 04:29:17;;;;;;;0.30;0.20;;;10.60;99.90;;;;;;5107412;28;20219;-77
2024/02/09 04:31:46;;;;;;;0.30;0.20;;;10.50;99.90;;;;;;5108779;28;20544;-77
2024/02/09 04:34:15;;;;;;;0.30;0.20;;;10.50;99.90;;;;;;5109039;28;20226;-77
2024/02/09 04:36:47;;;;;;;0.30;0.20;;;10.40;99.90;;;;;;5108815;28;20524;-77
2024/02/09 04:39:14;;;;;;;0.30;0.25;;;10.40;99.90;;;;;;5107707;28;20706;-77
2024/02/09 04:41:44;;;;;;;0.30;0.30;;;10.40;99.90;;;;;;5108657;28;20364;-77
2024/02/09 04:44:11;;;;;;;0.30;0.20;;;10.40;99.90;;;;;;5107746;28;20203;-77
2024/02/09 04:46:38;;;;;;;0.35;0.32;;;10.30;99.90;;;;;;5108586;27;20199;-77
2024/02/09 04:49:09;;;;;;;0.30;0.30;;;10.30;99.90;;;;;;5107117;28;20223;-77
2024/02/09 04:51:47;;;;;;;0.30;0.20;;;10.30;99.90;;;;;;5108328;28;20413;-77
2024/02/09 04:54:13;;;;;;;0.30;0.20;;;10.30;99.90;;;;;;5106542;28;20203;-77
2024/02/09 04:56:40;;;;;;;0.30;0.20;;;10.20;99.90;;;;;;5108367;28;20221;-78
2024/02/09 04:59:10;;;;;;;0.30;0.20;;;10.20;99.90;;;;;;5108491;28;20204;-77
2024/02/09 05:01:38;;;;;;;0.30;0.20;;;10.20;99.90;;;;;;5106089;28;20194;-77
2024/02/09 05:04:11;;;;;;;0.30;0.20;;;10.20;99.90;;;;;;5105251;28;20200;-77
2024/02/09 05:06:41;;;;;;;0.30;0.20;;;10.10;99.90;;;;;;5106825;28;20176;-77
2024/02/09 05:09:09;;;;;;;0.30;0.30;;;10.10;99.90;;;;;;5106260;28;20306;-78
2024/02/09 05:11:39;;;;;;;0.30;0.20;;;10.10;99.90;;;;;;5107592;28;20368;-78
2024/02/09 05:14:06;;;;;;;0.47;0.47;;;10.10;99.90;;;;;;5108309;28;20274;-78
2024/02/09 05:16:41;;;;;;;0.30;0.20;;;10.10;99.90;;;;;;5106479;28;20675;-77
2024/02/09 05:19:10;;;;;;;0.30;0.20;;;10.10;99.90;;;;;;5106461;28;20207;-77
2024/02/09 05:21:35;;;;;;;0.30;0.20;;;10.20;99.90;;;;;;5107025;28;20175;-78
2024/02/09 05:24:03;;;;;;;0.30;0.20;;;10.20;99.90;;;;;;5106606;28;20200;-77
2024/02/09 05:26:28;;;;;;;0.30;0.20;;;10.30;99.90;;;;;;5099220;28;20492;-77
2024/02/09 05:28:54;;;;;;;2.10;1.27;;;10.30;99.90;;;;;;5085048;28;20294;-77
2024/02/09 05:31:23;;;;;;;0.50;0.50;;;10.30;99.90;;;;;;5085784;28;20676;-77
2024/02/09 05:33:50;;;;;;;0.30;0.20;;;10.30;99.90;;;;;;5085553;28;20256;-78
2024/02/09 05:36:27;;;;;;;0.30;0.20;;;10.40;99.90;;;;;;5086800;28;20183;-78
2024/02/09 05:38:57;;;;;;;0.30;0.20;;;10.40;99.90;;;;;;5086750;28;20284;-77
2024/02/09 05:41:22;;;;;;;0.93;0.93;;;10.40;99.90;;;;;;5099943;28;20168;-77
2024/02/09 05:43:54;;;;;;;0.30;0.20;;;10.40;99.90;;;;;;5105836;28;20230;-77
2024/02/09 05:46:20;;;;;;;0.30;0.20;;;10.40;99.90;;;;;;5105742;28;20559;-77
2024/02/09 05:48:47;;;;;;;0.30;0.20;;;10.30;99.90;;;;;;5104281;28;20317;-79
2024/02/09 05:51:17;;;;;;;0.30;0.20;;;10.30;99.90;;;;;;5104234;28;20897;-77
2024/02/09 05:53:43;;;;;;;0.30;0.20;;;10.30;99.90;;;;;;5104365;28;20204;-76
2024/02/09 05:56:21;;;;;;;0.30;0.20;;;10.30;99.90;;;;;;5105115;28;20593;-77
2024/02/09 05:58:54;;;;;;;0.30;0.20;;;10.20;99.90;;;;;;5101158;28;20215;-77
2024/02/09 06:01:20;;;;;;;0.30;0.20;;;10.20;99.90;;;;;;5085350;28;20573;-77
2024/02/09 06:03:46;;;;;;;0.30;0.20;;;10.20;99.90;;;;;;5083645;28;20212;-77
2024/02/09 06:06:16;;;;;;;0.30;0.20;;;10.20;99.90;;;;;;5084396;28;20180;-77
2024/02/09 06:08:45;;;;;;;0.30;0.20;;;10.30;99.90;;;;;;5102748;28;20804;-78
2024/02/09 06:11:12;;;;;;;0.30;0.20;;;10.30;99.90;;;;;;5104294;28;20353;-77
2024/02/09 06:13:37;;;;;;;0.40;0.40;;;10.30;99.90;;;;;;5104332;28;20687;-77
2024/02/09 06:16:03;;;;;;;0.30;0.20;;;10.30;99.90;;;;;;5105930;28;20164;-76
2024/02/09 06:18:29;;;;;;;0.30;0.20;;;10.40;99.90;;;;;;5104869;28;20215;-76
2024/02/09 06:20:58;;;;;;;0.30;0.30;;;10.50;99.90;;;;;;5105054;28;20418;-77
2024/02/09 06:23:25;;;;;;;0.30;0.20;;;10.60;99.90;;;;;;5099582;28;20456;-77
2024/02/09 06:25:51;;;;;;;0.40;0.30;;;10.60;99.90;;;;;;5103405;28;20176;-77
2024/02/09 06:28:20;;;;;;;0.30;0.30;;;10.70;99.90;;;;;;5106242;28;20714;-77
2024/02/09 06:30:49;;;;;;;0.30;0.20;;;10.80;99.90;;;;;;5105739;28;20582;-77
2024/02/09 06:33:15;;;;;;;0.50;0.50;;;10.80;99.90;;;;;;5105451;28;20511;-77
2024/02/09 06:35:43;;;;;;;1.98;0.88;;;10.80;99.90;;;;;;5106526;28;20173;-77
2024/02/09 06:38:09;;;;;;;0.30;0.20;;;10.80;99.90;;;;;;5101136;28;20710;-76
2024/02/09 06:40:34;;;;;;;0.30;0.20;;;10.80;99.90;;;;;;5104380;28;20184;-78
2024/02/09 06:43:01;;;;;;;0.30;0.27;;;10.90;99.90;;;;;;5102667;28;20260;-78
2024/02/09 06:45:27;;;;;;;0.30;0.20;;;10.90;99.90;;;;;;5104327;28;20187;-78
2024/02/09 06:47:53;;;;;;;0.30;0.20;;;10.90;99.90;;;;;;5101623;28;20327;-77
2024/02/09 06:50:21;;;;;;;0.30;0.20;;;11.00;99.90;;;;;;5103636;28;20198;-78
2024/02/09 06:52:50;;;;;;;0.30;0.20;;;11.00;99.90;;;;;;5101633;28;20203;-78
2024/02/09 06:55:17;;;;;;;0.30;0.25;;;10.90;99.90;;;;;;5103669;28;20497;-77
2024/02/09 06:57:44;;;;;;;0.40;0.20;;;10.90;99.90;;;;;;5101179;28;20195;-78
2024/02/09 07:00:14;;;;;;;0.30;0.30;;;11.00;99.90;;;;;;5102704;28;20172;-77
2024/02/09 07:02:45;;;;;;;0.30;0.20;;;10.90;99.90;;;;;;5098966;28;20216;-77
2024/02/09 07:05:14;;;;;;;0.30;0.20;;;10.90;99.90;;;;;;5092358;28;20850;-77
2024/02/09 07:07:49;;;;;;;0.30;0.20;;;11.00;99.90;;;;;;5084078;28;21092;-77
2024/02/09 07:10:17;;;;;;;0.30;0.20;;;11.00;99.90;;;;;;5100858;28;20486;-78
2024/02/09 07:12:43;;;;;;;0.30;0.20;;;11.10;99.90;;;;;;5101779;28;20723;-77
2024/02/09 07:15:09;;;;;;;0.30;0.20;;;11.20;99.90;;;;;;5100160;28;20432;-76
2024/02/09 07:17:35;;;;;;;0.30;0.20;;;11.20;99.90;;;;;;5099380;28;20432;-78
2024/02/09 07:20:03;;;;;;;1.03;1.03;;;11.20;99.90;;;;;;5098840;28;20532;-78
2024/02/09 07:22:29;;;;;;;0.30;0.20;;;11.30;99.90;;;;;;5098485;28;20180;-77
2024/02/09 07:24:55;;;;;;;0.30;0.20;;;11.40;99.90;;;;;;5094629;28;21045;-78
2024/02/09 07:27:21;;;;;;;0.30;0.20;;;11.50;99.90;;;;;;5111637;28;20433;-76
2024/02/09 07:29:47;;;;;;;0.60;0.60;;;11.60;99.90;;;;;;5085131;28;20619;-78
2024/02/09 07:32:13;;;;;;;0.30;0.20;;;11.80;99.90;;;;;;5119345;28;20420;-78
2024/02/09 07:34:39;;;;;;;0.50;0.50;;;12.00;99.90;;;;;;5102222;28;20310;-78
2024/02/09 07:37:05;;;;;;;0.30;0.20;;;12.00;99.90;;;;;;5103440;28;20510;-78
2024/02/09 07:39:32;;;;;;;3.37;3.17;;;12.20;99.90;;;;;;5102925;28;20211;-77
2024/02/09 07:41:58;;;;;;;0.30;0.30;;;12.30;99.90;;;;;;5113419;28;20173;-79
2024/02/09 07:44:25;;;;;;;7.70;3.83;;;12.50;99.90;;;;;;5111506;28;20544;-78
2024/02/09 07:46:53;;;;;;;0.30;0.20;;;12.60;99.90;;;;;;5101350;28;20424;-77
2024/02/09 07:49:22;;;;;;;0.30;0.20;;;12.70;99.90;;;;;;5103904;28;21052;-77
2024/02/09 07:51:49;;;;;;;0.30;0.20;;;12.70;99.90;;;;;;5091113;28;20427;-78
2024/02/09 07:54:14;;;;;;;0.30;0.20;;;12.80;99.90;;;;;;5091065;28;20456;-77
2024/02/09 07:56:40;;;;;;;0.60;0.60;;;12.90;99.90;;;;;;5098832;28;21017;-77
2024/02/09 07:59:06;;;;;;;0.30;0.20;;;13.10;99.90;;;;;;5098935;28;20239;-78
2024/02/09 08:01:31;;;;;;;0.30;0.20;;;13.20;99.90;;;;;;5114821;28;20617;-78
2024/02/09 08:03:58;;;;;;;0.30;0.20;;;13.40;99.90;;;;;;5100519;28;20256;-77
2024/02/09 08:06:24;;;;;;;0.40;0.30;;;13.60;99.90;;;;;;5098477;28;20354;-77
2024/02/09 08:08:52;;;;;;;0.30;0.20;;;14.00;99.90;;;;;;5099838;28;20540;-78
2024/02/09 08:11:19;;;;;;;0.30;0.20;;;14.30;99.90;;;;;;5097170;28;20516;-78
2024/02/09 08:13:45;;;;;;;4.83;3.60;;;14.40;99.90;;;;;;5099050;28;21032;-78
2024/02/09 08:16:11;;;;;;;0.37;0.30;;;14.40;99.90;;;;;;5098244;28;20416;-77
2024/02/09 08:18:37;;;;;;;0.30;0.20;;;14.30;99.90;;;;;;5097462;28;20268;-77
2024/02/09 08:21:03;;;;;;;0.60;0.60;;;14.50;99.90;;;;;;5081359;28;20181;-78
2024/02/09 08:23:29;;;;;;;0.40;0.30;;;14.70;99.90;;;;;;5091498;28;20207;-77
2024/02/09 08:25:55;;;;;;;0.50;0.50;;;15.00;99.90;;;;;;5115328;28;20412;-78
2024/02/09 08:28:20;;;;;;;0.40;0.20;;;15.50;99.90;;;;;;5096492;28;20966;-77
2024/02/09 08:30:46;;;;;;;0.40;0.30;;;16.10;99.90;;;;;;5095087;28;20516;-78
2024/02/09 08:33:12;;;;;;;5.40;3.90;;;16.90;99.90;;;;;;5096276;28;20222;-78
2024/02/09 08:35:40;;;;;;;0.30;0.20;;;17.40;99.90;;;;;;5103070;28;20716;-78
2024/02/09 08:38:07;;;;;;;1.03;1.03;;;17.60;99.90;;;;;;5099045;28;20755;-78
2024/02/09 08:40:33;;;;;;;0.30;0.20;;;17.30;99.90;;;;;;5097182;28;20482;-78
2024/02/09 08:43:00;;;;;;;0.87;0.80;;;16.70;99.90;;;;;;5095455;28;20457;-77
2024/02/09 08:45:27;;;;;;;0.30;0.20;;;16.20;99.90;;;;;;5098892;28;20963;-78
2024/02/09 08:47:53;;;;;;;0.30;0.20;;;16.00;99.90;;;;;;5119791;27;20451;-78
2024/02/09 08:50:19;;;;;;;2.30;2.20;;;15.70;99.90;;;;;;5105009;28;20424;-77
2024/02/09 08:52:44;;;;;;;0.30;0.30;;;15.60;99.90;;;;;;5103850;28;20463;-77
2024/02/09 08:55:10;;;;;;;0.50;0.50;;;15.40;99.90;;;;;;5102147;28;20746;-78
2024/02/09 08:57:36;;;;;;;0.40;0.30;;;15.20;99.90;;;;;;5104214;28;20196;-77
2024/02/09 09:00:04;;;;;;;0.30;0.20;;;15.10;99.90;;;;;;5104341;28;20252;-77
2024/02/09 09:02:29;;;;;;;0.30;0.20;;;15.10;99.90;;;;;;5103720;28;20530;-77
2024/02/09 09:04:57;;;;;;;0.53;0.53;;;15.20;99.90;;;;;;5102475;28;20774;-77
2024/02/09 09:07:23;;;;;;;0.40;0.40;;;15.30;99.90;;;;;;5099742;28;20176;-78
2024/02/09 09:09:48;;;;;;;0.30;0.20;;;15.20;99.90;;;;;;5120309;27;20459;-77
2024/02/09 09:12:14;;;;;;;0.40;0.30;;;15.10;99.90;;;;;;5088742;28;20285;-77
2024/02/09 09:14:40;;;;;;;0.30;0.20;;;15.00;99.90;;;;;;5092134;28;20310;-77
2024/02/09 09:17:06;;;;;;;0.30;0.20;;;14.90;99.90;;;;;;5096551;27;20696;-77
2024/02/09 09:19:31;;;;;;;0.87;0.87;;;14.90;99.90;;;;;;5098345;28;20452;-77
2024/02/09 09:21:57;;;;;;;0.30;0.20;;;14.90;99.90;;;;;;5098595;28;20168;-78
2024/02/09 09:24:23;;;;;;;0.30;0.20;;;15.00;99.90;;;;;;5090367;28;20627;-77
2024/02/09 09:26:49;;;;;;;3.57;3.37;;;14.90;99.90;;;;;;5098601;27;20204;-77
2024/02/09 09:29:15;;;;;;;0.30;0.20;;;15.00;99.90;;;;;;5093661;28;20243;-78
2024/02/09 09:31:41;;;;;;;0.30;0.27;;;14.90;99.90;;;;;;5096709;28;20441;-78
2024/02/09 09:34:08;;;;;;;0.30;0.20;;;15.00;99.90;;;;;;5095075;28;20564;-77
2024/02/09 09:36:34;;;;;;;0.30;0.20;;;15.00;99.90;;;;;;5086941;28;20455;-78
2024/02/09 09:39:05;;;;;;;0.30;0.20;;;15.00;99.90;;;;;;5099890;28;20444;-78
2024/02/09 09:41:41;;;;;;;0.30;0.20;;;15.00;99.90;;;;;;5113924;27;20803;-77
2024/02/09 09:44:07;;;;;;;0.30;0.20;;;15.00;99.90;;;;;;5097064;28;20554;-77
2024/02/09 09:46:40;;;;;;;0.40;0.30;;;15.00;99.90;;;;;;5101167;28;20919;-78
2024/02/09 09:49:09;;;;;;;0.30;0.20;;;15.00;99.90;;;;;;5100327;28;20231;-78
2024/02/09 09:51:36;;;;;;;0.30;0.20;;;15.00;99.90;;;;;;5099532;28;20977;-77
2024/02/09 09:54:06;;;;;;;0.97;0.97;;;15.00;99.90;;;;;;5100793;28;20446;-77
2024/02/09 09:56:33;;;;;;;0.30;0.20;;;15.00;99.90;;;;;;5099179;28;21012;-76
2024/02/09 09:58:59;;;;;;;1.47;1.07;;;15.10;99.90;;;;;;5102268;28;20518;-76
2024/02/09 10:01:25;;;;;;;1.07;1.03;;;15.20;99.90;;;;;;5113269;27;20822;-77
2024/02/09 10:03:52;;;;;;;0.30;0.20;;;15.20;99.90;;;;;;5100755;28;20555;-77
2024/02/09 10:06:18;;;;;;;0.30;0.20;;;15.20;99.90;;;;;;5115404;27;20168;-77
2024/02/09 10:08:44;;;;;;;9.10;2.30;;;15.40;99.90;;;;;;5101970;28;20472;-77
2024/02/09 10:11:10;;;;;;;0.30;0.20;;;15.60;99.90;;;;;;5117518;27;20813;-80
2024/02/09 10:13:37;;;;;;;0.33;0.30;;;16.00;99.90;;;;;;5101529;28;20191;-77
2024/02/09 10:16:04;;;;;;;0.30;0.20;;;16.20;99.90;;;;;;5099726;28;20180;-77
2024/02/09 10:18:34;;;;;;;0.30;0.20;;;16.60;99.90;;;;;;5116794;27;20813;-77
2024/02/09 10:21:00;;;;;;;0.30;0.20;;;16.80;99.90;;;;;;5117986;27;20417;-77
2024/02/09 10:23:28;;;;;;;0.37;0.20;;;17.10;99.90;;;;;;5119005;27;20446;-80
2024/02/09 10:25:56;;;;;;;0.30;0.20;;;17.10;99.90;;;;;;5102754;28;20413;-78
2024/02/09 10:28:27;;;;;;;0.30;0.20;;;17.20;99.90;;;;;;5102859;28;20474;-80
2024/02/09 10:30:53;;;;;;;0.30;0.20;;;17.20;99.90;;;;;;5097785;28;20426;-78
2024/02/09 10:33:20;;;;;;;2.13;2.00;;;17.20;99.90;;;;;;5083420;28;20528;-77
2024/02/09 10:35:46;;;;;;;0.30;0.20;;;17.00;99.90;;;;;;5093530;28;20437;-77
2024/02/09 10:38:12;;;;;;;0.30;0.20;;;16.80;99.90;;;;;;5091914;28;20984;-77
2024/02/09 10:40:38;;;;;;;1.80;1.70;;;16.80;99.90;;;;;;5093923;28;20190;-77
2024/02/09 10:43:04;;;;;;;0.50;0.50;;;16.80;99.90;;;;;;5093965;28;20468;-77
2024/02/09 10:45:32;;;;;;;0.30;0.20;;;16.70;99.90;;;;;;5096153;28;20705;-78
2024/02/09 10:47:59;;;;;;;0.40;0.33;;;16.70;99.90;;;;;;5099227;28;20556;-78
2024/02/09 10:50:30;;;;;;;0.40;0.30;;;16.70;99.90;;;;;;5093497;28;20435;-78
2024/02/09 10:52:59;;;;;;;0.30;0.20;;;16.70;99.90;;;;;;5095487;28;20542;-77
2024/02/09 10:55:33;;;;;;;0.30;0.20;;;16.70;99.90;;;;;;5101784;28;20577;-77
2024/02/09 10:57:59;;;;;;;0.40;0.37;;;16.80;99.90;;;;;;5111157;27;21046;-77
2024/02/09 11:00:26;;;;;;;0.30;0.20;;;16.80;99.90;;;;;;5081158;28;20538;-78
2024/02/09 11:02:52;;;;;;;0.30;0.20;;;16.90;99.90;;;;;;5100963;28;20958;-78
2024/02/09 11:05:18;;;;;;;0.30;0.20;;;17.00;99.90;;;;;;5100132;28;20492;-77
2024/02/09 11:07:45;;;;;;;28.10;16.30;;;17.00;99.90;;;;;;5099500;28;20221;-78
2024/02/09 11:10:15;;;;;;;0.67;0.67;;;16.90;99.90;;;;;;5100260;28;21041;-78
2024/02/09 11:12:41;;;;;;;0.30;0.20;;;16.90;99.90;;;;;;5092780;28;20463;-79
2024/02/09 11:15:14;;;;;;;0.40;0.40;;;16.90;99.90;;;;;;5114649;27;20682;-78
2024/02/09 11:17:46;;;;;;;0.40;0.20;;;17.00;99.90;;;;;;5100483;28;20610;-78
2024/02/09 11:20:13;;;;;;;0.30;0.20;;;17.10;99.90;;;;;;5101383;28;20975;-77
2024/02/09 11:22:44;;;;;;;0.30;0.20;;;17.10;99.90;;;;;;5102113;28;20435;-78
2024/02/09 11:25:10;;;;;;;0.30;0.20;;;17.20;99.90;;;;;;5107806;28;20516;-78
2024/02/09 11:27:36;;;;;;;0.30;0.20;;;17.10;99.90;;;;;;5098506;28;20435;-78
2024/02/09 11:30:05;;;;;;;0.30;0.20;;;17.10;99.90;;;;;;5098995;28;20213;-78
2024/02/09 11:32:33;;;;;;;0.30;0.20;;;17.10;99.90;;;;;;5095344;28;20438;-78
2024/02/09 11:34:59;;;;;;;0.30;0.20;;;17.20;99.90;;;;;;5100247;28;20634;-77
2024/02/09 11:37:25;;;;;;;0.30;0.20;;;17.20;99.90;;;;;;5097293;28;20514;-77
2024/02/09 11:39:51;;;;;;;0.50;0.50;;;17.20;99.90;;;;;;5100332;28;20998;-78
2024/02/09 11:42:19;;;;;;;0.30;0.30;;;17.20;99.90;;;;;;5108571;28;20207;-78
2024/02/09 11:44:46;;;;;;;0.30;0.20;;;17.20;99.90;;;;;;5095370;28;20190;-77
2024/02/09 11:47:13;;;;;;;0.30;0.20;;;17.20;99.90;;;;;;5093124;28;20851;-78
2024/02/09 11:49:42;;;;;;;0.30;0.30;;;17.20;99.90;;;;;;5097059;28;21042;-77
2024/02/09 11:52:09;;;;;;;0.30;0.20;;;17.10;99.90;;;;;;5098718;28;20538;-77
2024/02/09 11:54:35;;;;;;;0.30;0.20;;;17.10;99.90;;;;;;5092340;28;20453;-77
2024/02/09 11:57:01;;;;;;;0.30;0.20;;;17.20;99.90;;;;;;5090505;28;20427;-77
2024/02/09 11:59:29;;;;;;;0.30;0.20;;;17.10;99.90;;;;;;5091908;28;20222;-78
2024/02/09 12:01:54;;;;;;;0.30;0.20;;;17.10;99.90;;;;;;5090384;28;20414;-78
2024/02/09 12:04:21;;;;;;;0.30;0.20;;;17.00;99.90;;;;;;5093065;28;20502;-78
2024/02/09 12:06:47;;;;;;;0.50;0.47;;;17.10;99.90;;;;;;5094317;28;20192;-77
2024/02/09 12:09:13;;;;;;;16.13;2.13;;;17.00;99.90;;;;;;5094538;28;20481;-77
2024/02/09 12:11:39;;;;;;;7.30;2.40;;;17.00;99.90;;;;;;5100510;28;20795;-77
2024/02/09 12:14:05;;;;;;;0.30;0.20;;;17.10;99.90;;;;;;5102551;28;20881;-77
2024/02/09 12:16:31;;;;;;;0.30;0.20;;;17.10;99.90;;;;;;5097657;28;20449;-77
2024/02/09 12:18:58;;;;;;;2.40;2.30;;;17.10;99.90;;;;;;5096855;28;20208;-77
2024/02/09 12:21:24;;;;;;;0.30;0.20;;;17.10;99.90;;;;;;5094018;28;20546;-78
2024/02/09 12:23:52;;;;;;;0.30;0.20;;;17.20;99.90;;;;;;5099970;28;21034;-78
2024/02/09 12:26:21;;;;;;;0.30;0.20;;;17.20;99.90;;;;;;5095309;28;20428;-78
2024/02/09 12:28:48;;;;;;;0.30;0.20;;;17.20;99.90;;;;;;5091841;28;20520;-78
2024/02/09 12:31:16;;;;;;;0.30;0.20;;;17.30;99.90;;;;;;5098749;28;20429;-78
2024/02/09 12:33:52;;;;;;;0.53;0.53;;;17.30;99.90;;;;;;5099987;28;20457;-78
2024/02/09 12:36:20;;;;;;;2.20;1.60;;;17.40;99.80;;;;;;5092231;28;20701;-78
2024/02/09 12:38:50;;;;;;;0.30;0.20;;;17.30;99.30;;;;;;5096978;28;20831;-78
2024/02/09 12:41:16;;;;;;;2.23;2.13;;;17.40;99.50;;;;;;5094956;28;20436;-78
2024/02/09 12:43:44;;;;;;;0.30;0.20;;;17.40;99.40;;;;;;5097325;28;20439;-78
2024/02/09 12:46:10;;;;;;;0.30;0.30;;;17.50;99.20;;;;;;5100359;28;20519;-78
2024/02/09 12:48:41;;;;;;;0.37;0.37;;;17.50;99.30;;;;;;5096307;28;20526;-78
2024/02/09 12:51:06;;;;;;;0.73;0.73;;;17.50;99.00;;;;;;5098506;28;20246;-80
2024/02/09 12:53:33;;;;;;;0.30;0.20;;;17.50;99.10;;;;;;5101460;28;20475;-79
2024/02/09 12:55:59;;;;;;;1.57;1.47;;;17.50;98.90;;;;;;5095118;28;20339;-79
2024/02/09 12:58:25;;;;;;;0.30;0.30;;;17.60;99.20;;;;;;5093287;28;20444;-78
2024/02/09 13:00:53;;;;;;;0.30;0.20;;;17.50;98.80;;;;;;5090907;28;20441;-78
2024/02/09 13:03:21;;;;;;;0.30;0.20;;;17.60;99.10;;;;;;5095567;28;20331;-78
2024/02/09 13:05:50;;;;;;;0.30;0.20;;;17.60;98.90;;;;;;5119078;27;20449;-78
2024/02/09 13:08:15;;;;;;;0.40;0.40;;;17.70;99.10;;;;;;5095782;28;20450;-78
2024/02/09 13:10:41;;;;;;;0.30;0.20;;;17.70;98.80;;;;;;5094905;28;20467;-78
2024/02/09 13:13:07;;;;;;;4.13;2.20;;;17.80;99.00;;;;;;5099546;28;20487;-78
2024/02/09 13:15:37;;;;;;;0.40;0.40;;;17.80;99.10;;;;;;5097863;28;20206;-78
2024/02/09 13:18:04;;;;;;;0.30;0.20;;;17.90;99.00;;;;;;5093929;28;20198;-78
2024/02/09 13:20:30;;;;;;;0.30;0.20;;;17.80;98.80;;;;;;5099225;28;20570;-79
2024/02/09 13:22:57;;;;;;;0.30;0.30;;;17.80;99.10;;;;;;5091848;28;20665;-78
2024/02/09 13:25:23;;;;;;;0.30;0.20;;;17.90;99.10;;;;;;5093914;28;20403;-78
2024/02/09 13:27:51;;;;;;;0.30;0.20;;;17.90;99.10;;;;;;5093749;28;20640;-79
2024/02/09 13:30:20;;;;;;;0.30;0.20;;;18.00;99.60;;;;;;5092280;28;20641;-78
2024/02/09 13:32:47;;;;;;;0.30;0.20;;;18.00;99.00;;;;;;5098567;28;20508;-79
2024/02/09 13:35:17;;;;;;;0.30;0.20;;;18.00;98.80;;;;;;5101008;28;20810;-79
2024/02/09 13:37:44;;;;;;;0.30;0.20;;;18.00;98.90;;;;;;5105692;27;20823;-78
2024/02/09 13:40:16;;;;;;;0.40;0.33;;;18.00;99.00;;;;;;5101921;28;20450;-78
2024/02/09 13:42:49;;;;;;;0.30;0.20;;;17.90;99.00;;;;;;5097971;28;20463;-79
2024/02/09 13:45:25;;;;;;;0.30;0.20;;;17.90;99.20;;;;;;5098755;28;21064;-79
2024/02/09 13:47:52;;;;;;;0.30;0.20;;;17.80;99.20;;;;;;5111496;27;20551;-79
2024/02/09 13:50:22;;;;;;;0.30;0.20;;;17.80;99.10;;;;;;5105430;27;20560;-79
2024/02/09 13:52:47;;;;;;;0.30;0.20;;;17.70;99.30;;;;;;5101532;28;20755;-79
2024/02/09 13:55:13;;;;;;;0.30;0.20;;;17.70;98.60;;;;;;5106880;27;20517;-79
2024/02/09 13:57:43;;;;;;;0.30;0.20;;;17.60;98.50;;;;;;5105893;27;20264;-79
2024/02/09 14:00:17;;;;;;;0.70;0.70;;;17.60;98.10;;;;;;5100802;28;20587;-79
2024/02/09 14:02:46;;;;;;;0.50;0.50;;;17.60;97.90;;;;;;5094559;28;20544;-79
2024/02/09 14:05:12;;;;;;;0.57;0.50;;;17.70;97.90;;;;;;5098682;28;20564;-79
2024/02/09 14:07:39;;;;;;;1.27;1.17;;;17.70;97.90;;;;;;5100872;28;20997;-80
2024/02/09 14:10:06;;;;;;;0.30;0.20;;;17.70;97.80;;;;;;5094766;28;20562;-80
2024/02/09 14:12:32;;;;;;;0.30;0.20;;;17.70;97.70;;;;;;5089124;28;20446;-79
2024/02/09 14:14:58;;;;;;;0.63;0.63;;;17.70;97.70;;;;;;5092236;28;20779;-80
2024/02/09 14:17:24;;;;;;;0.30;0.30;;;17.70;97.70;;;;;;5103487;28;20189;-79
2024/02/09 14:19:50;;;;;;;0.30;0.20;;;17.60;97.80;;;;;;5102790;28;20411;-79
2024/02/09 14:22:16;;;;;;;0.30;0.20;;;17.70;97.80;;;;;;5102494;28;20548;-81
2024/02/09 14:24:42;;;;;;;0.47;0.47;;;17.60;97.70;;;;;;5109282;27;20446;-80
2024/02/09 14:27:11;;;;;;;0.30;0.20;;;17.60;97.80;;;;;;5101796;28;20447;-80
2024/02/09 14:29:40;;;;;;;0.30;0.20;;;17.60;97.70;;;;;;5105506;28;20227;-79
2024/02/09 14:32:09;;;;;;;0.30;0.20;;;17.60;97.60;;;;;;5117159;27;20443;-80
2024/02/09 14:34:38;;;;;;;1.90;1.57;;;17.50;97.60;;;;;;5102041;28;20819;-80
2024/02/09 14:37:04;;;;;;;0.93;0.93;;;17.50;97.60;;;;;;5103037;28;20441;-79